createdAt,value
2023-02-18T00:00:23.813Z,42235.94
2023-02-18T00:05:48.803Z,42313.75
2023-02-18T00:10:53.351Z,42291.78
2023-02-18T00:16:02.510Z,42421.47
2023-02-18T00:21:09.671Z,42461.38
2023-02-18T00:26:15.615Z,42307.75
2023-02-18T00:31:22.124Z,42148.16
2023-02-18T00:36:27.698Z,42477.34
2023-02-18T00:41:32.619Z,42716.75
2023-02-18T00:46:36.539Z,42968.19
2023-02-18T00:51:41.731Z,43101.88
2023-02-18T00:56:45.462Z,43121.81
2023-02-18T01:01:49.204Z,43129.81
2023-02-18T01:06:54.428Z,43067.94
2023-02-18T01:11:58.097Z,43044.00
2023-02-18T01:17:01.857Z,43203.63
2023-02-18T01:22:07.536Z,43397.22
2023-02-18T01:27:11.942Z,43491.00
2023-02-18T01:32:15.773Z,43588.78
2023-02-18T01:37:20.856Z,43584.81
2023-02-18T01:42:26.417Z,43746.47
2023-02-18T01:47:30.424Z,44097.72
2023-02-18T01:52:35.478Z,44337.25
2023-02-18T01:57:40.132Z,44473.00
2023-02-18T02:02:47.292Z,44718.53
2023-02-18T02:07:55.475Z,45016.00
2023-02-18T02:13:06.785Z,45109.81
2023-02-18T02:18:26.246Z,45149.75
2023-02-18T02:24:22.798Z,45203.66
2023-02-18T02:29:50.263Z,45247.59
2023-02-18T02:34:59.841Z,45227.63
2023-02-18T02:40:14.628Z,45207.66
2023-02-18T02:45:25.713Z,45157.75
2023-02-18T02:50:39.168Z,45095.84
2023-02-18T02:55:42.903Z,44994.03
2023-02-18T03:07:13.379Z,44710.53
2023-02-18T03:12:26.679Z,44932.13
2023-02-18T03:17:38.274Z,45141.75
2023-02-18T03:22:48.714Z,45219.63
2023-02-18T03:27:56.698Z,45327.44
2023-02-18T03:33:05.322Z,45355.41
2023-02-18T03:38:15.706Z,45335.44
2023-02-18T03:43:19.405Z,45287.50
2023-02-18T03:48:23.141Z,45227.63
2023-02-18T03:53:30.558Z,45155.75
2023-02-18T03:58:34.205Z,45143.75
2023-02-18T04:03:37.841Z,45117.81
2023-02-18T04:08:42.881Z,45087.84
2023-02-18T04:13:46.584Z,45061.91
2023-02-18T04:18:50.222Z,45327.44
2023-02-18T04:23:55.257Z,45686.84
2023-02-18T04:28:59.010Z,45874.56
2023-02-18T04:34:02.724Z,46010.34
2023-02-18T04:39:07.825Z,46186.06
2023-02-18T04:44:11.520Z,46259.97
2023-02-18T04:49:15.348Z,46317.88
2023-02-18T04:54:20.410Z,46373.78
2023-02-18T04:59:24.276Z,46381.78
2023-02-18T05:04:28.124Z,46413.75
2023-02-18T05:09:33.628Z,46449.69
2023-02-18T05:14:37.430Z,46471.66
2023-02-18T05:19:41.124Z,46481.66
2023-02-18T05:24:46.234Z,46517.59
2023-02-18T05:29:49.904Z,46513.59
2023-02-18T05:34:53.566Z,46535.56
2023-02-18T05:39:58.684Z,46539.56
2023-02-18T05:45:02.390Z,46545.56
2023-02-18T05:50:07.456Z,46571.53
2023-02-18T05:55:12.651Z,46575.50
2023-02-18T06:00:16.937Z,46603.47
2023-02-18T06:05:20.815Z,46617.44
2023-02-18T06:10:25.888Z,46625.44
2023-02-18T06:15:29.608Z,46627.44
2023-02-18T06:20:33.518Z,46629.44
2023-02-18T06:25:38.562Z,46607.47
2023-02-18T06:30:42.224Z,46635.44
2023-02-18T06:35:55.315Z,46677.38
2023-02-18T06:41:00.381Z,46721.31
2023-02-18T06:46:04.445Z,46717.31
2023-02-18T06:51:08.250Z,46713.31
2023-02-18T06:56:13.652Z,46727.31
2023-02-18T07:01:17.387Z,46713.31
2023-02-18T07:06:21.118Z,46721.31
2023-02-18T07:11:26.149Z,46763.25
2023-02-18T07:16:30.008Z,46765.25
2023-02-18T07:21:33.695Z,46749.28
2023-02-18T07:26:38.937Z,46765.25
2023-02-18T07:31:42.715Z,46781.22
2023-02-18T07:36:46.769Z,46771.25
2023-02-18T07:41:52.004Z,46811.19
2023-02-18T07:46:55.767Z,46829.16
2023-02-18T07:51:59.605Z,46823.19
2023-02-18T07:57:04.853Z,46847.16
2023-02-18T08:02:08.778Z,46825.16
2023-02-18T08:07:14.551Z,46821.19
2023-02-18T08:12:19.615Z,46829.16
2023-02-18T08:17:23.364Z,46851.13
2023-02-18T08:22:27.114Z,46867.13
2023-02-18T08:27:33.070Z,46865.13
2023-02-18T08:32:37.459Z,46869.13
2023-02-18T08:37:52.751Z,46847.16
2023-02-18T08:42:59.335Z,46837.16
2023-02-18T08:48:18.202Z,46833.16
2023-02-18T08:53:23.759Z,46811.19
2023-02-18T08:58:28.915Z,46775.25
2023-02-18T09:03:32.680Z,46751.28
2023-02-18T09:08:36.468Z,46733.28
2023-02-18T09:13:42.094Z,46715.31
2023-02-18T09:18:46.094Z,46689.34
2023-02-18T09:23:50.025Z,46687.34
2023-02-18T09:28:56.517Z,46637.44
2023-02-18T09:34:02.592Z,46627.44
2023-02-18T09:39:06.778Z,46573.50
2023-02-18T09:44:17.792Z,46519.59
2023-02-18T09:49:25.986Z,46525.59
2023-02-18T09:54:29.985Z,46529.56
2023-02-18T09:59:35.274Z,46589.50
2023-02-18T10:04:45.822Z,46603.47
2023-02-18T10:09:52.174Z,46589.50
2023-02-18T10:15:00.411Z,46497.63
2023-02-18T10:20:07.957Z,46429.72
2023-02-18T10:25:20.238Z,46373.78
2023-02-18T10:30:33.738Z,46381.78
2023-02-18T10:35:48.525Z,46323.88
2023-02-18T10:41:02.186Z,46283.94
2023-02-18T10:46:18.926Z,46259.97
2023-02-18T10:51:25.734Z,46226.00
2023-02-18T10:56:39.499Z,46136.16
2023-02-18T11:01:45.278Z,46026.31
2023-02-18T11:06:50.777Z,45926.47
2023-02-18T11:12:08.347Z,45796.66
2023-02-18T11:17:29.022Z,45660.88
2023-02-18T11:22:37.137Z,45563.06
2023-02-18T11:27:45.674Z,45441.25
2023-02-18T11:32:57.438Z,45287.50
2023-02-18T11:38:03.437Z,45151.75
2023-02-18T11:43:13.269Z,45027.97
2023-02-18T11:48:20.732Z,44912.19
2023-02-18T11:53:29.573Z,44838.31
2023-02-18T11:58:39.910Z,44750.47
2023-02-18T12:03:50.606Z,44674.63
2023-02-18T12:08:58.288Z,44534.88
2023-02-18T12:14:02.365Z,44399.13
2023-02-18T12:19:22.994Z,44217.50
2023-02-18T12:24:46.641Z,44123.69
2023-02-18T12:30:22.968Z,44051.81
2023-02-18T12:35:43.299Z,44013.91
2023-02-18T12:41:02.637Z,43938.06
2023-02-18T12:46:32.362Z,43942.06
2023-02-18T12:51:47.102Z,43890.16
2023-02-18T12:57:05.522Z,43768.41
2023-02-18T13:02:24.599Z,43772.41
2023-02-18T13:07:41.404Z,43756.44
2023-02-18T13:12:50.179Z,43660.63
2023-02-18T13:17:58.907Z,43660.63
2023-02-18T13:23:04.942Z,43558.84
2023-02-18T13:28:19.252Z,43506.97
2023-02-18T13:33:36.306Z,43461.06
2023-02-18T13:38:59.695Z,43532.91
2023-02-18T13:44:08.240Z,43391.22
2023-02-18T13:49:14.228Z,43163.72
2023-02-18T13:54:26.233Z,43169.72
2023-02-18T13:59:36.822Z,42992.13
2023-02-18T14:04:53.901Z,42990.13
2023-02-18T14:10:00.368Z,42796.56
2023-02-18T14:15:23.423Z,42850.44
2023-02-18T14:20:56.533Z,42852.44
2023-02-18T14:26:08.057Z,42782.59
2023-02-18T14:31:36.864Z,42714.78
2023-02-18T14:36:47.772Z,42563.13
2023-02-18T14:42:01.401Z,42469.34
2023-02-18T14:47:20.860Z,42237.94
2023-02-18T14:52:28.702Z,42156.13
2023-02-18T14:57:38.601Z,42028.47
2023-02-18T15:02:42.292Z,42002.53
2023-02-18T15:08:00.313Z,41866.88
2023-02-18T15:13:08.790Z,41715.28
2023-02-18T15:18:22.653Z,41665.41
2023-02-18T15:23:26.521Z,41623.50
2023-02-18T15:28:33.975Z,41422.03
2023-02-18T15:33:37.781Z,41122.88
2023-02-18T15:38:43.064Z,40963.31
2023-02-18T15:43:56.483Z,40787.81
2023-02-18T15:49:03.119Z,40634.25
2023-02-18T15:54:07.026Z,40484.69
2023-02-18T15:59:20.177Z,40345.09
2023-02-18T16:04:26.539Z,40269.31
2023-02-18T16:09:33.586Z,40223.47
2023-02-18T16:14:46.729Z,40169.63
2023-02-18T16:20:04.454Z,40107.81
2023-02-18T16:25:17.171Z,40109.81
2023-02-18T16:30:26.595Z,40057.97
2023-02-18T16:35:43.879Z,40006.13
2023-02-18T16:40:53.412Z,40024.06
2023-02-18T16:46:01.045Z,39982.19
2023-02-18T16:51:08.004Z,39984.19
2023-02-18T16:56:17.745Z,39952.28
2023-02-18T17:01:25.282Z,39972.22
2023-02-18T17:06:32.156Z,39950.28
2023-02-18T17:11:37.150Z,40014.09
2023-02-18T17:16:42.310Z,40034.03
2023-02-18T17:21:48.592Z,40179.59
2023-02-18T17:26:52.813Z,40416.88
2023-02-18T17:31:58.314Z,40670.16
2023-02-18T17:37:02.039Z,40827.69
2023-02-18T17:42:05.925Z,41075.00
2023-02-18T17:47:11.049Z,41252.50
2023-02-18T17:52:30.785Z,41428.03
2023-02-18T17:57:34.296Z,41519.78
2023-02-18T18:02:39.719Z,41661.41
2023-02-18T18:07:43.694Z,41589.59
2023-02-18T18:12:47.773Z,41595.59
2023-02-18T18:17:53.818Z,41615.53
2023-02-18T18:22:59.151Z,41767.13
2023-02-18T18:28:06.798Z,41872.84
2023-02-18T18:33:18.262Z,42275.84
2023-02-18T18:38:23.466Z,42501.28
2023-02-18T18:43:32.494Z,42529.22
2023-02-18T18:48:38.231Z,42686.84
2023-02-18T18:53:42.049Z,42904.31
2023-02-18T18:58:45.816Z,43121.81
2023-02-18T19:03:51.084Z,43101.88
2023-02-18T19:08:54.870Z,43063.97
2023-02-18T19:13:59.081Z,42974.16
2023-02-18T19:19:04.407Z,42828.50
2023-02-18T19:24:08.954Z,42555.16
2023-02-18T19:29:12.689Z,42613.00
2023-02-18T19:34:17.870Z,42716.75
2023-02-18T19:39:21.711Z,42884.38
2023-02-18T19:44:25.449Z,43024.06
2023-02-18T19:49:30.566Z,43211.63
2023-02-18T19:54:34.456Z,43213.63
2023-02-18T19:59:38.410Z,43347.31
2023-02-18T20:04:43.851Z,43467.06
2023-02-18T20:09:47.958Z,43457.09
2023-02-18T20:14:52.442Z,43489.00
2023-02-18T20:19:58.070Z,43542.91
2023-02-18T20:25:02.505Z,43407.19
2023-02-18T20:30:07.805Z,43103.88
2023-02-18T20:35:12.916Z,42654.91
2023-02-18T20:40:17.128Z,42114.25
2023-02-18T20:45:20.993Z,41930.72
2023-02-18T20:50:26.190Z,41555.69
2023-02-18T20:55:30.067Z,41236.56
2023-02-18T21:00:33.828Z,41080.97
2023-02-18T21:05:39.027Z,41007.19
2023-02-18T21:10:45.525Z,40945.38
2023-02-18T21:15:50.012Z,40787.81
2023-02-18T21:20:55.554Z,40789.81
2023-02-18T21:26:07.549Z,40688.09
2023-02-18T21:31:17.799Z,40546.50
2023-02-18T21:36:23.742Z,40502.63
2023-02-18T21:41:28.573Z,40454.78
2023-02-18T21:46:37.518Z,40490.66
2023-02-18T21:52:00.574Z,40530.56
2023-02-18T21:57:06.151Z,40598.34
2023-02-18T22:02:16.296Z,40484.69
2023-02-18T22:07:23.081Z,40379.00
2023-02-18T22:12:27.331Z,40347.09
2023-02-18T22:17:33.595Z,40530.56
2023-02-18T22:22:38.745Z,40554.50
2023-02-18T22:27:42.635Z,40606.34
2023-02-18T22:32:46.562Z,40630.25
2023-02-18T22:37:51.739Z,40610.31
2023-02-18T22:42:55.540Z,40592.38
2023-02-18T22:47:59.238Z,40520.59
2023-02-18T22:53:04.832Z,40584.41
2023-02-18T22:58:11.512Z,40670.16
2023-02-18T23:03:15.188Z,40789.81
2023-02-18T23:08:20.448Z,40861.59
2023-02-18T23:13:24.107Z,40883.53
2023-02-18T23:18:48.704Z,40965.31
2023-02-18T23:23:57.366Z,41055.06
2023-02-18T23:29:04.516Z,41110.91
2023-02-18T23:34:13.418Z,41270.47
2023-02-18T23:39:21.189Z,41256.50
2023-02-18T23:44:27.134Z,41100.94
2023-02-18T23:49:30.995Z,41100.94
2023-02-18T23:54:36.224Z,41104.91
2023-02-18T23:59:40.015Z,41156.78
